Time;durP1;ratioP1;P1;durP2;ratioP2;P2;SDS_P1;SDS_P2;PMS_P1;PMS_P2;Temp;Humidity;BMP_temperature;BMP_pressure;BME280_temperature;BME280_humidity;BME280_pressure;Samples;Min_cycle;Max_cycle;Signal;HPM_P1;HPM_P2
2023/03/06 00:00:32;;;;;;;5.45;1.65;;;1.60;99.90;;;;;;5051165;28;20055;-70
2023/03/06 00:02:58;;;;;;;3.72;1.67;;;1.60;99.90;;;;;;5051574;28;20041;-70
2023/03/06 00:05:24;;;;;;;5.82;1.90;;;1.60;99.90;;;;;;5050189;28;20041;-70
2023/03/06 00:07:50;;;;;;;7.95;1.92;;;1.50;99.90;;;;;;5050838;28;20037;-70
2023/03/06 00:10:22;;;;;;;5.20;1.52;;;1.60;99.90;;;;;;5050149;28;20123;-70
2023/03/06 00:12:50;;;;;;;5.30;1.60;;;1.60;99.90;;;;;;5049737;28;20041;-71
2023/03/06 00:15:16;;;;;;;3.15;1.33;;;1.50;99.90;;;;;;5051325;28;20045;-70
2023/03/06 00:17:41;;;;;;;4.93;1.55;;;1.50;99.90;;;;;;5051306;28;20090;-70
2023/03/06 00:20:10;;;;;;;7.10;1.60;;;1.60;99.90;;;;;;5050558;28;20555;-70
2023/03/06 00:22:36;;;;;;;5.53;1.20;;;1.60;99.90;;;;;;5049783;28;20058;-70
2023/03/06 00:25:04;;;;;;;3.95;1.42;;;1.60;99.90;;;;;;5049697;28;20088;-70
2023/03/06 00:27:31;;;;;;;4.00;1.58;;;1.70;99.90;;;;;;5049629;28;20045;-70
2023/03/06 00:29:58;;;;;;;4.07;1.30;;;1.60;99.90;;;;;;5049913;28;20071;-70
2023/03/06 00:32:25;;;;;;;4.18;1.45;;;1.70;99.90;;;;;;5049667;28;20478;-70
2023/03/06 00:34:52;;;;;;;2.95;1.42;;;1.70;99.90;;;;;;5048923;28;20044;-70
2023/03/06 00:37:18;;;;;;;6.57;1.60;;;1.80;99.90;;;;;;5049899;28;20606;-70
2023/03/06 00:39:45;;;;;;;3.55;1.38;;;1.80;99.90;;;;;;5033217;28;20534;-70
2023/03/06 00:42:11;;;;;;;4.80;1.65;;;1.90;99.90;;;;;;5049186;28;20045;-71
2023/03/06 00:44:37;;;;;;;3.70;1.40;;;1.90;99.90;;;;;;5050753;28;20104;-70
2023/03/06 00:47:03;;;;;;;7.43;1.80;;;2.00;99.90;;;;;;5049457;28;20037;-70
2023/03/06 00:49:29;;;;;;;4.93;1.52;;;2.10;99.90;;;;;;5050071;28;20035;-71
2023/03/06 00:51:55;;;;;;;4.30;1.33;;;2.20;99.90;;;;;;5032809;28;20258;-70
2023/03/06 00:54:20;;;;;;;6.00;1.45;;;2.30;99.90;;;;;;5049169;28;20112;-70
2023/03/06 00:56:46;;;;;;;3.53;1.50;;;2.40;99.90;;;;;;5048557;28;20037;-70
2023/03/06 00:59:12;;;;;;;6.07;1.48;;;2.40;99.90;;;;;;5049499;28;20044;-71
2023/03/06 01:01:38;;;;;;;4.05;1.20;;;2.40;99.90;;;;;;5049540;28;20127;-71
2023/03/06 01:04:03;;;;;;;5.72;1.30;;;2.50;99.90;;;;;;5049033;28;20493;-71
2023/03/06 01:06:29;;;;;;;6.60;1.70;;;2.50;99.90;;;;;;5050786;28;20045;-70
2023/03/06 01:08:55;;;;;;;5.28;1.50;;;2.60;99.90;;;;;;5048627;28;20049;-71
2023/03/06 01:11:21;;;;;;;3.95;1.40;;;2.60;99.90;;;;;;5050520;28;20037;-70
2023/03/06 01:13:47;;;;;;;5.38;1.52;;;2.60;99.90;;;;;;5049313;28;20397;-71
2023/03/06 01:16:17;;;;;;;6.22;1.60;;;2.70;99.90;;;;;;5048482;28;20044;-71
2023/03/06 01:18:44;;;;;;;2.65;0.98;;;2.70;99.90;;;;;;5049232;28;20072;-69
2023/03/06 01:21:10;;;;;;;5.28;1.30;;;2.80;99.90;;;;;;5049046;28;20049;-71
2023/03/06 01:23:35;;;;;;;5.85;1.83;;;2.80;99.90;;;;;;5048271;28;20060;-71
2023/03/06 01:26:01;;;;;;;3.05;1.50;;;2.80;99.90;;;;;;5050019;28;20465;-71
2023/03/06 01:28:27;;;;;;;2.28;1.13;;;2.80;99.90;;;;;;5050003;28;20428;-71
2023/03/06 01:30:53;;;;;;;5.63;2.20;;;2.90;99.90;;;;;;5048571;28;20057;-71
2023/03/06 01:33:19;;;;;;;4.13;1.33;;;2.90;99.90;;;;;;5049116;28;20427;-71
2023/03/06 01:35:45;;;;;;;6.38;1.67;;;2.90;99.90;;;;;;5048971;28;20692;-65
2023/03/06 01:38:11;;;;;;;6.00;1.42;;;2.90;99.90;;;;;;5049601;28;20125;-65
2023/03/06 01:40:38;;;;;;;3.45;1.27;;;2.90;99.90;;;;;;5054123;28;20128;-65
2023/03/06 01:43:29;;;;;;;5.32;1.25;;;3.00;99.90;;;;;;5053216;28;20049;-65
2023/03/06 01:46:22;;;;;;;4.05;1.63;;;3.00;99.90;;;;;;5053793;28;20117;-65
2023/03/06 01:48:52;;;;;;;11.32;1.42;;;3.00;99.90;;;;;;5054178;28;20040;-65
2023/03/06 01:51:18;;;;;;;3.85;1.33;;;3.00;99.90;;;;;;5052141;28;20047;-65
2023/03/06 01:53:45;;;;;;;8.35;1.65;;;3.00;99.90;;;;;;5054075;28;20115;-65
2023/03/06 01:56:13;;;;;;;4.20;1.38;;;3.10;99.90;;;;;;5052663;28;20493;-65
2023/03/06 01:58:42;;;;;;;4.53;2.05;;;3.10;99.90;;;;;;5051887;28;20099;-65
2023/03/06 02:01:10;;;;;;;6.40;1.95;;;3.10;99.90;;;;;;5052830;28;20044;-65
2023/03/06 02:03:37;;;;;;;6.35;1.50;;;3.10;99.90;;;;;;5052689;28;20567;-65
2023/03/06 02:06:02;;;;;;;3.83;2.17;;;3.20;99.90;;;;;;5052230;28;20108;-66
2023/03/06 02:08:30;;;;;;;4.50;1.90;;;3.20;99.90;;;;;;5052414;28;20056;-65
2023/03/06 02:11:10;;;;;;;4.07;2.05;;;3.20;99.90;;;;;;5052496;28;20036;-65
2023/03/06 02:13:36;;;;;;;3.75;1.95;;;3.30;99.90;;;;;;5053127;28;20505;-65
2023/03/06 02:16:02;;;;;;;5.20;2.22;;;3.30;99.90;;;;;;5053731;28;20045;-65
2023/03/06 02:18:29;;;;;;;4.68;1.90;;;3.40;99.90;;;;;;5053635;28;20085;-66
2023/03/06 02:20:59;;;;;;;3.22;1.63;;;3.40;99.90;;;;;;5053014;28;20052;-65
2023/03/06 02:23:34;;;;;;;2.58;1.33;;;3.40;99.90;;;;;;5052193;28;20111;-66
2023/03/06 02:26:00;;;;;;;2.30;1.00;;;3.40;99.90;;;;;;5051711;28;20064;-65
2023/03/06 02:28:26;;;;;;;3.13;1.00;;;3.40;99.90;;;;;;5052024;28;20187;-66
2023/03/06 02:30:54;;;;;;;2.45;0.85;;;3.30;99.90;;;;;;5053069;28;20455;-65
2023/03/06 02:33:22;;;;;;;3.47;1.00;;;3.30;99.90;;;;;;5051367;28;20072;-66
2023/03/06 02:35:51;;;;;;;2.72;1.15;;;3.30;99.90;;;;;;5052313;28;20041;-66
2023/03/06 02:38:21;;;;;;;2.08;0.90;;;3.30;99.90;;;;;;5053522;28;20033;-66
2023/03/06 02:40:49;;;;;;;1.55;0.88;;;3.20;99.90;;;;;;5051328;28;20099;-66
2023/03/06 02:43:21;;;;;;;1.17;0.60;;;3.20;99.90;;;;;;5035400;28;20195;-66
2023/03/06 02:45:49;;;;;;;1.92;0.55;;;3.20;99.90;;;;;;5053262;28;20052;-66
2023/03/06 02:48:16;;;;;;;2.47;0.77;;;3.20;99.90;;;;;;5052338;28;20374;-66
2023/03/06 02:50:42;;;;;;;2.30;0.50;;;3.20;99.90;;;;;;5052112;28;20087;-66
2023/03/06 02:53:10;;;;;;;3.53;0.82;;;3.10;99.90;;;;;;5051690;28;20041;-66
2023/03/06 02:55:36;;;;;;;3.25;0.93;;;3.10;99.90;;;;;;5051012;28;20076;-66
2023/03/06 02:58:02;;;;;;;2.40;0.70;;;3.10;99.90;;;;;;5052981;28;20073;-66
2023/03/06 03:00:28;;;;;;;1.42;0.82;;;3.10;99.90;;;;;;5052634;28;20033;-66
2023/03/06 03:02:54;;;;;;;1.65;0.77;;;3.00;99.90;;;;;;5051787;28;20055;-66
2023/03/06 03:05:20;;;;;;;2.50;1.00;;;3.00;99.90;;;;;;5051754;28;20116;-66
2023/03/06 03:07:46;;;;;;;2.30;0.90;;;3.00;99.90;;;;;;5050876;28;20123;-66
2023/03/06 03:10:12;;;;;;;2.80;0.75;;;3.00;99.90;;;;;;5051516;28;20080;-66
2023/03/06 03:12:39;;;;;;;1.80;0.70;;;3.00;99.90;;;;;;5052670;28;20095;-66
2023/03/06 03:15:05;;;;;;;2.67;0.93;;;3.00;99.90;;;;;;5050653;28;20060;-66
2023/03/06 03:17:38;;;;;;;2.22;0.70;;;3.00;99.90;;;;;;5051285;28;20048;-65
2023/03/06 03:20:06;;;;;;;1.70;1.00;;;3.00;99.90;;;;;;5051282;28;20047;-66
2023/03/06 03:22:32;;;;;;;1.38;0.68;;;2.90;99.90;;;;;;5050453;28;20068;-66
2023/03/06 03:24:58;;;;;;;3.10;0.90;;;2.90;99.90;;;;;;5051012;28;20056;-66
2023/03/06 03:27:24;;;;;;;4.13;0.93;;;2.90;99.90;;;;;;5051309;28;20037;-66
2023/03/06 03:29:50;;;;;;;2.92;0.55;;;2.90;99.90;;;;;;5050539;28;20377;-66
2023/03/06 03:32:15;;;;;;;1.95;0.70;;;2.90;99.90;;;;;;5052223;28;20048;-66
2023/03/06 03:34:41;;;;;;;1.20;0.60;;;2.90;99.90;;;;;;5050992;28;20037;-66
2023/03/06 03:37:07;;;;;;;2.65;0.80;;;2.80;99.90;;;;;;5050334;28;20123;-66
2023/03/06 03:39:33;;;;;;;1.83;0.65;;;2.90;99.90;;;;;;5052296;28;20033;-66
2023/03/06 03:41:59;;;;;;;1.30;0.60;;;2.80;99.90;;;;;;5052244;28;20402;-66
2023/03/06 03:44:24;;;;;;;3.22;0.80;;;2.80;99.90;;;;;;5050003;28;20199;-66
2023/03/06 03:46:50;;;;;;;1.98;0.88;;;2.80;99.90;;;;;;5052028;28;20040;-66
2023/03/06 03:49:16;;;;;;;1.63;0.77;;;2.70;99.90;;;;;;5050600;28;20077;-66
2023/03/06 03:51:42;;;;;;;1.92;0.90;;;2.70;99.90;;;;;;5049877;28;20053;-66
2023/03/06 03:54:08;;;;;;;4.05;0.90;;;2.60;99.90;;;;;;5050720;28;20037;-66
2023/03/06 03:56:34;;;;;;;2.55;0.90;;;2.60;99.90;;;;;;5050391;28;20494;-66
2023/03/06 03:59:00;;;;;;;1.85;0.70;;;2.50;99.90;;;;;;5051067;28;20041;-66
2023/03/06 04:01:26;;;;;;;1.40;0.70;;;2.40;99.90;;;;;;5050471;28;20043;-66
2023/03/06 04:03:52;;;;;;;1.52;0.90;;;2.30;99.90;;;;;;5048706;28;20512;-66
2023/03/06 04:06:17;;;;;;;1.45;0.65;;;2.30;99.90;;;;;;5050171;28;20486;-66
2023/03/06 04:08:43;;;;;;;1.80;0.80;;;2.20;99.90;;;;;;5050610;28;20123;-66
2023/03/06 04:11:09;;;;;;;2.33;0.68;;;2.20;99.90;;;;;;5051088;28;20067;-66
2023/03/06 04:13:35;;;;;;;1.83;0.90;;;2.20;99.90;;;;;;5050354;28;20041;-66
2023/03/06 04:16:01;;;;;;;5.45;1.42;;;2.20;99.90;;;;;;5050366;28;20072;-65
2023/03/06 04:18:27;;;;;;;1.83;0.95;;;2.20;99.90;;;;;;5050842;28;20370;-65
2023/03/06 04:20:53;;;;;;;1.70;1.02;;;2.30;99.90;;;;;;5051461;28;20083;-66
2023/03/06 04:23:19;;;;;;;2.88;1.45;;;2.30;99.90;;;;;;5049774;28;20110;-65
2023/03/06 04:25:45;;;;;;;3.00;1.10;;;2.30;99.90;;;;;;5049321;28;20036;-65
2023/03/06 04:28:12;;;;;;;2.40;1.20;;;2.40;99.90;;;;;;5049933;28;20040;-66
2023/03/06 04:30:37;;;;;;;2.25;1.30;;;2.40;99.90;;;;;;5051110;28;20056;-66
2023/03/06 04:33:04;;;;;;;2.25;1.13;;;2.40;99.90;;;;;;5049019;28;20036;-66
2023/03/06 04:35:30;;;;;;;2.55;1.17;;;2.40;99.90;;;;;;5050765;28;20037;-66
2023/03/06 04:37:56;;;;;;;3.15;0.90;;;2.40;99.90;;;;;;5049671;28;20041;-66
2023/03/06 04:40:28;;;;;;;2.60;1.10;;;2.40;99.90;;;;;;5050387;28;20040;-66
2023/03/06 04:42:55;;;;;;;2.70;1.00;;;2.30;99.90;;;;;;5050944;28;20413;-66
2023/03/06 04:45:22;;;;;;;1.58;0.70;;;2.30;99.90;;;;;;5051090;28;20147;-65
2023/03/06 04:47:48;;;;;;;2.95;0.88;;;2.30;99.90;;;;;;5049190;28;20401;-66
2023/03/06 04:50:15;;;;;;;1.83;0.70;;;2.30;99.90;;;;;;5050547;28;20615;-66
2023/03/06 04:52:41;;;;;;;2.40;1.05;;;2.20;99.90;;;;;;5050851;28;20561;-66
2023/03/06 04:55:08;;;;;;;2.65;0.80;;;2.20;99.90;;;;;;5048724;28;20045;-66
2023/03/06 04:57:39;;;;;;;2.30;1.00;;;2.20;99.90;;;;;;5032977;28;20037;-66
2023/03/06 05:00:09;;;;;;;2.00;1.10;;;2.20;99.90;;;;;;5048500;28;20045;-66
2023/03/06 05:02:35;;;;;;;1.50;0.85;;;2.10;99.90;;;;;;5049283;28;20037;-66
2023/03/06 05:05:02;;;;;;;1.88;1.00;;;2.10;99.90;;;;;;5050549;28;20116;-66
2023/03/06 05:07:28;;;;;;;1.17;0.80;;;2.10;99.90;;;;;;5048660;28;20094;-66
2023/03/06 05:09:53;;;;;;;2.60;0.85;;;2.10;99.90;;;;;;5050408;28;20037;-66
2023/03/06 05:12:19;;;;;;;3.50;0.85;;;2.10;99.90;;;;;;5049380;28;20128;-66
2023/03/06 05:14:45;;;;;;;4.97;1.10;;;2.10;99.90;;;;;;5048391;28;20110;-66
2023/03/06 05:17:11;;;;;;;1.85;0.90;;;2.00;99.90;;;;;;5050630;28;20485;-66
2023/03/06 05:19:36;;;;;;;3.08;0.85;;;2.00;99.90;;;;;;5050337;28;20116;-66
2023/03/06 05:22:02;;;;;;;1.33;0.80;;;2.00;99.90;;;;;;5049651;28;20494;-66
2023/03/06 05:24:28;;;;;;;1.60;0.82;;;1.90;99.90;;;;;;5049002;28;20110;-66
2023/03/06 05:26:54;;;;;;;1.88;1.00;;;1.80;99.90;;;;;;5049215;28;20056;-66
2023/03/06 05:29:20;;;;;;;1.38;0.80;;;1.80;99.90;;;;;;5048212;28;20421;-66
2023/03/06 05:31:46;;;;;;;2.40;1.27;;;1.70;99.90;;;;;;5048668;28;20045;-66
2023/03/06 05:34:16;;;;;;;2.00;0.80;;;1.60;99.90;;;;;;5048856;28;20044;-65
2023/03/06 05:36:42;;;;;;;1.45;0.93;;;1.60;99.90;;;;;;5048442;28;20090;-66
2023/03/06 05:39:08;;;;;;;1.95;1.17;;;1.50;99.90;;;;;;5049073;28;20056;-65
2023/03/06 05:41:34;;;;;;;3.00;1.10;;;1.50;99.90;;;;;;5048662;28;20045;-65
2023/03/06 05:44:00;;;;;;;2.00;1.13;;;1.50;99.90;;;;;;5048442;28;20103;-65
2023/03/06 05:46:26;;;;;;;2.22;1.10;;;1.50;99.90;;;;;;5048797;28;20509;-66
2023/03/06 05:48:56;;;;;;;2.58;1.30;;;1.50;99.90;;;;;;5049616;28;20424;-65
2023/03/06 05:51:23;;;;;;;3.92;1.35;;;1.40;99.90;;;;;;5050032;28;20045;-65
2023/03/06 05:53:49;;;;;;;3.25;1.35;;;1.40;99.90;;;;;;5032450;28;20110;-65
2023/03/06 05:56:15;;;;;;;1.98;1.30;;;1.30;99.90;;;;;;5048104;28;20234;-65
2023/03/06 05:58:41;;;;;;;4.00;1.70;;;1.30;99.90;;;;;;5048422;28;20045;-65
2023/03/06 06:01:08;;;;;;;1.83;1.23;;;1.20;99.90;;;;;;5048520;28;20051;-65
2023/03/06 06:03:34;;;;;;;2.17;1.08;;;1.10;99.90;;;;;;5048282;28;20056;-65
2023/03/06 06:06:03;;;;;;;2.58;1.25;;;1.10;99.90;;;;;;5048925;28;20049;-65
2023/03/06 06:08:29;;;;;;;2.47;1.30;;;1.10;99.90;;;;;;5049962;28;20044;-65
2023/03/06 06:10:55;;;;;;;3.45;1.40;;;1.00;99.90;;;;;;5049313;28;20079;-65
2023/03/06 06:13:21;;;;;;;2.50;1.33;;;1.00;99.90;;;;;;5049989;28;20040;-65
2023/03/06 06:15:46;;;;;;;3.38;1.50;;;1.00;99.90;;;;;;5048569;28;20079;-64
2023/03/06 06:18:12;;;;;;;2.58;1.45;;;0.90;99.90;;;;;;5048180;28;20048;-65
2023/03/06 06:20:38;;;;;;;2.45;1.20;;;0.90;99.90;;;;;;5049673;28;20619;-64
2023/03/06 06:23:04;;;;;;;3.28;1.80;;;0.80;99.90;;;;;;5049643;28;20049;-64
2023/03/06 06:25:30;;;;;;;4.78;1.38;;;0.80;99.90;;;;;;5048517;28;20078;-64
2023/03/06 06:27:56;;;;;;;2.85;1.60;;;0.80;99.90;;;;;;5052212;28;20380;-64
2023/03/06 06:30:23;;;;;;;4.10;1.73;;;0.80;99.90;;;;;;5052058;28;20120;-64
2023/03/06 06:32:49;;;;;;;3.95;1.63;;;0.70;99.90;;;;;;5051645;28;20041;-64
2023/03/06 06:35:15;;;;;;;2.83;1.63;;;0.70;99.90;;;;;;5053437;28;20099;-64
2023/03/06 06:37:40;;;;;;;2.83;1.58;;;0.70;99.90;;;;;;5052223;28;20041;-65
2023/03/06 06:40:07;;;;;;;3.38;1.70;;;0.70;99.90;;;;;;5051313;28;20036;-65
2023/03/06 06:42:35;;;;;;;2.72;1.30;;;0.70;99.90;;;;;;5053195;28;20044;-65
2023/03/06 06:45:04;;;;;;;4.43;1.95;;;0.80;99.90;;;;;;5051225;28;20478;-65
2023/03/06 06:47:30;;;;;;;2.88;1.60;;;0.80;99.90;;;;;;5051970;28;20036;-65
2023/03/06 06:49:56;;;;;;;4.13;1.90;;;0.80;99.90;;;;;;5035233;28;20464;-65
2023/03/06 06:52:23;;;;;;;4.13;2.00;;;0.90;99.90;;;;;;5051111;28;20072;-65
2023/03/06 06:54:49;;;;;;;3.75;1.90;;;1.00;99.90;;;;;;5052926;28;20037;-65
2023/03/06 06:57:15;;;;;;;3.88;1.80;;;1.00;99.90;;;;;;5052780;28;20033;-65
2023/03/06 06:59:41;;;;;;;5.75;2.30;;;1.00;99.90;;;;;;5050717;28;20067;-65
2023/03/06 07:02:07;;;;;;;3.55;1.80;;;0.90;99.90;;;;;;5052703;28;20032;-65
2023/03/06 07:04:32;;;;;;;4.15;1.90;;;0.90;99.90;;;;;;5052877;28;20033;-65
2023/03/06 07:06:58;;;;;;;3.88;1.70;;;0.90;99.90;;;;;;5052362;28;20536;-64
2023/03/06 07:09:25;;;;;;;4.72;2.25;;;1.00;99.90;;;;;;5051409;28;20047;-64
2023/03/06 07:11:51;;;;;;;4.85;1.95;;;1.00;99.90;;;;;;5052587;28;20049;-64
2023/03/06 07:14:17;;;;;;;6.65;2.65;;;1.10;99.90;;;;;;5050623;28;20037;-64
2023/03/06 07:16:42;;;;;;;5.22;2.08;;;1.30;99.90;;;;;;5052509;28;20043;-64
2023/03/06 07:19:08;;;;;;;3.30;2.20;;;1.40;99.90;;;;;;5052388;28;20033;-64
2023/03/06 07:21:34;;;;;;;5.93;2.63;;;1.50;99.90;;;;;;5050616;28;20437;-64
2023/03/06 07:24:00;;;;;;;4.32;2.70;;;1.60;99.90;;;;;;5052193;28;20053;-64
2023/03/06 07:26:27;;;;;;;6.03;3.10;;;1.80;99.90;;;;;;5051125;28;20041;-64
2023/03/06 07:28:53;;;;;;;4.90;2.53;;;1.90;99.90;;;;;;5051538;28;20072;-64
2023/03/06 07:31:21;;;;;;;9.48;6.30;;;2.10;99.90;;;;;;5034377;28;20556;-63
2023/03/06 07:33:49;;;;;;;5.32;3.35;;;2.20;99.90;;;;;;5050302;28;20041;-64
2023/03/06 07:36:14;;;;;;;6.38;3.38;;;2.30;99.90;;;;;;5052172;28;20355;-64
2023/03/06 07:38:40;;;;;;;5.72;3.00;;;2.30;99.90;;;;;;5050998;28;20095;-66
2023/03/06 07:41:12;;;;;;;3.67;2.03;;;2.40;99.90;;;;;;5050408;28;20053;-65
2023/03/06 07:43:45;;;;;;;9.00;5.30;;;2.50;99.90;;;;;;5050961;28;20087;-66
2023/03/06 07:46:11;;;;;;;7.95;4.88;;;2.50;99.90;;;;;;5050592;28;20124;-65
2023/03/06 07:48:38;;;;;;;6.18;5.38;;;2.50;99.90;;;;;;5050207;28;20175;-65
2023/03/06 07:51:06;;;;;;;4.50;2.33;;;2.60;99.90;;;;;;5050569;28;20098;-66
2023/03/06 07:53:33;;;;;;;4.82;2.58;;;2.70;99.90;;;;;;5051780;28;20436;-65
2023/03/06 07:55:59;;;;;;;4.20;2.15;;;2.90;99.90;;;;;;5033090;28;20052;-66
2023/03/06 07:58:25;;;;;;;4.10;1.92;;;3.00;99.90;;;;;;5051637;28;20041;-66
2023/03/06 08:00:52;;;;;;;3.80;1.80;;;3.10;99.90;;;;;;5050547;28;20657;-66
2023/03/06 08:03:17;;;;;;;2.55;1.33;;;3.30;99.90;;;;;;5049821;28;20056;-66
2023/03/06 08:05:43;;;;;;;2.92;1.27;;;3.40;99.90;;;;;;5050607;28;20045;-66
2023/03/06 08:08:10;;;;;;;2.47;0.93;;;3.40;99.90;;;;;;5050277;28;20483;-66
2023/03/06 08:10:36;;;;;;;3.90;1.30;;;3.50;99.90;;;;;;5049519;28;20127;-66
2023/03/06 08:13:02;;;;;;;6.20;2.33;;;3.70;99.90;;;;;;5050107;28;20049;-66
2023/03/06 08:15:28;;;;;;;1.70;1.05;;;3.90;99.90;;;;;;5051608;28;20167;-66
2023/03/06 08:17:54;;;;;;;4.60;1.20;;;4.00;99.90;;;;;;5049477;28;20493;-66
2023/03/06 08:20:20;;;;;;;1.45;0.85;;;4.20;99.90;;;;;;5050048;28;20052;-66
2023/03/06 08:22:47;;;;;;;4.88;1.00;;;4.60;99.90;;;;;;5049056;28;20057;-66
2023/03/06 08:25:13;;;;;;;2.38;0.82;;;5.10;99.90;;;;;;5049668;28;20136;-66
2023/03/06 08:27:39;;;;;;;2.03;0.93;;;5.70;99.90;;;;;;5049851;28;20084;-67
2023/03/06 08:30:07;;;;;;;1.70;0.82;;;6.20;99.90;;;;;;5049137;28;20548;-66
2023/03/06 08:32:36;;;;;;;4.22;1.30;;;6.90;99.90;;;;;;5049944;28;20047;-67
2023/03/06 08:35:04;;;;;;;3.58;1.08;;;7.40;99.90;;;;;;5049703;28;20054;-66
2023/03/06 08:37:29;;;;;;;4.07;1.00;;;7.40;99.90;;;;;;5049316;28;20118;-66
2023/03/06 08:39:55;;;;;;;2.35;0.80;;;7.30;99.90;;;;;;5049751;28;20494;-67
2023/03/06 08:42:21;;;;;;;2.75;0.90;;;7.40;99.90;;;;;;5049479;28;20094;-67
2023/03/06 08:44:47;;;;;;;3.13;0.98;;;7.70;99.90;;;;;;5048964;28;20048;-67
2023/03/06 08:47:12;;;;;;;1.55;0.82;;;8.30;99.90;;;;;;5049562;28;20047;-67
2023/03/06 08:49:38;;;;;;;3.00;0.80;;;8.60;99.90;;;;;;5048938;28;20044;-67
2023/03/06 08:52:06;;;;;;;1.73;0.80;;;8.90;99.90;;;;;;5050121;28;20037;-67
2023/03/06 08:54:34;;;;;;;2.65;0.70;;;9.40;99.90;;;;;;5049429;28;20083;-67
2023/03/06 08:57:00;;;;;;;1.67;0.57;;;9.50;99.90;;;;;;5050317;28;20503;-67
2023/03/06 08:59:26;;;;;;;1.50;0.60;;;9.20;99.90;;;;;;5049078;28;20071;-67
2023/03/06 09:01:52;;;;;;;1.95;0.77;;;8.60;99.90;;;;;;5049130;28;20599;-67
2023/03/06 09:04:18;;;;;;;2.55;0.80;;;8.70;99.90;;;;;;5049519;28;20079;-67
2023/03/06 09:06:44;;;;;;;3.53;1.95;;;9.10;99.90;;;;;;5049960;28;20423;-67
2023/03/06 09:09:10;;;;;;;19.23;9.50;;;10.00;99.90;;;;;;5050555;28;20083;-67
2023/03/06 09:11:36;;;;;;;44.30;22.27;;;10.50;99.90;;;;;;5048968;28;20063;-67
2023/03/06 09:14:03;;;;;;;29.38;14.32;;;10.10;99.90;;;;;;5049764;28;20041;-66
2023/03/06 09:16:29;;;;;;;15.85;6.97;;;9.80;99.90;;;;;;5049066;28;20079;-67
2023/03/06 09:18:56;;;;;;;18.25;7.72;;;9.20;99.90;;;;;;5048468;28;20076;-66
2023/03/06 09:21:23;;;;;;;13.15;5.68;;;8.50;99.90;;;;;;5050309;28;20413;-67
2023/03/06 09:23:50;;;;;;;12.50;4.85;;;8.50;99.90;;;;;;5049868;28;20060;-66
2023/03/06 09:26:16;;;;;;;12.15;4.13;;;9.30;99.90;;;;;;5049437;28;20044;-67
2023/03/06 09:28:42;;;;;;;9.63;4.72;;;9.90;99.90;;;;;;5050544;28;20044;-67
2023/03/06 09:31:13;;;;;;;5.18;2.05;;;10.10;99.90;;;;;;5048968;28;20398;-67
2023/03/06 09:33:39;;;;;;;5.93;2.97;;;10.70;99.90;;;;;;5047837;28;20080;-67
2023/03/06 09:36:07;;;;;;;6.32;1.70;;;10.80;99.90;;;;;;5031928;28;20084;-67
2023/03/06 09:38:33;;;;;;;5.85;1.90;;;10.60;99.90;;;;;;5048413;28;20029;-66
2023/03/06 09:41:05;;;;;;;6.25;1.23;;;10.30;99.90;;;;;;5047883;28;20155;-66
2023/03/06 09:43:34;;;;;;;5.60;1.05;;;9.60;99.90;;;;;;5048232;28;20041;-66
2023/03/06 09:46:06;;;;;;;2.07;0.70;;;8.80;99.90;;;;;;5048483;28;20491;-66
2023/03/06 09:48:52;;;;;;;4.07;0.57;;;8.20;99.90;;;;;;5047807;28;20114;-66
2023/03/06 09:51:26;;;;;;;3.00;0.90;;;7.70;99.90;;;;;;5048366;28;20142;-66
2023/03/06 09:54:03;;;;;;;3.80;0.68;;;7.80;99.90;;;;;;5031519;28;20075;-66
2023/03/06 09:56:33;;;;;;;3.20;0.60;;;8.60;99.90;;;;;;5049032;28;20432;-66
2023/03/06 09:59:11;;;;;;;;;;;9.40;99.90;;;;;;5049431;28;20045;-66
2023/03/06 10:01:43;;;;;;;4.78;0.82;;;10.00;99.90;;;;;;5052135;28;20461;-67
2023/03/06 10:04:27;;;;;;;2.63;0.52;;;11.00;99.90;;;;;;5050456;28;20051;-66
2023/03/06 10:06:59;;;;;;;2.08;0.52;;;11.90;99.90;;;;;;5053807;28;20076;-66
2023/03/06 10:10:04;;;;;;;4.18;0.77;;;12.10;99.90;;;;;;5051802;28;20083;-66
2023/03/06 10:12:36;;;;;;;3.65;0.88;;;12.10;99.90;;;;;;5019162;28;20385;-66
2023/03/06 10:15:11;;;;;;;3.47;0.70;;;11.90;99.90;;;;;;5050992;28;20057;-67
2023/03/06 10:17:39;;;;;;;2.47;0.30;;;12.10;99.90;;;;;;5052717;28;20397;-66
2023/03/06 10:20:26;;;;;;;2.33;0.45;;;12.20;99.90;;;;;;5053084;28;20047;-66
2023/03/06 10:23:08;;;;;;;2.40;0.50;;;11.60;99.90;;;;;;5052302;28;20072;-66
2023/03/06 10:25:52;;;;;;;2.08;0.40;;;11.00;99.90;;;;;;5053372;28;20421;-66
2023/03/06 10:28:27;;;;;;;3.20;0.63;;;11.20;99.90;;;;;;5053410;28;20049;-66
2023/03/06 10:31:13;;;;;;;4.35;0.68;;;11.10;99.90;;;;;;5051550;28;20508;-66
2023/03/06 10:34:21;;;;;;;3.20;0.50;;;10.70;99.90;;;;;;5051773;28;20049;-66
2023/03/06 10:36:48;;;;;;;1.73;0.50;;;11.50;99.90;;;;;;5044268;28;20060;-66
2023/03/06 10:39:20;;;;;;;4.80;0.50;;;12.10;99.90;;;;;;5052780;28;20041;-66
2023/03/06 10:41:47;;;;;;;4.18;0.50;;;12.50;99.90;;;;;;5052649;28;20082;-66
2023/03/06 10:44:12;;;;;;;5.30;2.50;;;12.90;99.90;;;;;;5051877;28;20049;-66
2023/03/06 10:46:42;;;;;;;4.60;1.55;;;13.40;99.90;;;;;;5052563;28;20095;-66
2023/03/06 10:49:27;;;;;;;;;;;13.30;96.10;;;;;;5051579;28;20041;-66
2023/03/06 10:52:00;;;;;;;2.75;1.02;;;12.80;95.60;;;;;;5050198;28;19928;-66
2023/03/06 10:54:28;;;;;;;3.85;0.82;;;11.40;95.60;;;;;;5034398;28;20048;-66
2023/03/06 10:56:54;;;;;;;1.95;0.40;;;10.30;96.50;;;;;;5050430;28;20048;-66
2023/03/06 10:59:24;;;;;;;3.85;0.80;;;9.50;97.50;;;;;;5050974;28;20036;-66
2023/03/06 11:02:22;;;;;;;1.80;0.50;;;9.00;98.50;;;;;;5050733;28;20072;-66
2023/03/06 11:04:52;;;;;;;1.88;0.40;;;9.20;99.90;;;;;;5050793;28;20075;-66
2023/03/06 11:07:23;;;;;;;1.90;0.60;;;9.70;99.90;;;;;;5052713;28;20444;-66
2023/03/06 11:09:57;;;;;;;2.92;0.60;;;9.60;99.50;;;;;;5052605;28;20049;-66
2023/03/06 11:12:32;;;;;;;2.58;0.50;;;10.10;99.90;;;;;;5051179;28;20572;-66
2023/03/06 11:15:13;;;;;;;4.47;0.60;;;10.90;99.60;;;;;;5049587;28;20059;-65
2023/03/06 11:17:53;;;;;;;1.77;0.50;;;11.30;97.50;;;;;;5051237;28;20119;-66
2023/03/06 11:20:22;;;;;;;;;;;11.60;98.20;;;;;;5039328;28;20029;-65
2023/03/06 11:22:53;;;;;;;1.15;0.40;;;12.00;97.60;;;;;;5051713;28;19925;-66
2023/03/06 11:25:25;;;;;;;2.03;0.52;;;12.20;97.10;;;;;;5050950;28;20036;-66
2023/03/06 11:28:02;;;;;;;11.45;5.65;;;12.30;96.20;;;;;;5051002;28;20416;-66
2023/03/06 11:30:43;;;;;;;1.85;0.47;;;12.60;96.90;;;;;;5050811;28;20116;-66
2023/03/06 11:33:22;;;;;;;2.40;1.10;;;13.00;95.80;;;;;;5050010;28;20485;-66
2023/03/06 11:36:10;;;;;;;8.55;1.67;;;13.10;93.90;;;;;;5051123;28;20123;-66
2023/03/06 11:38:49;;;;;;;1.70;0.43;;;13.10;93.60;;;;;;5051972;28;20581;-66
2023/03/06 11:41:38;;;;;;;0.65;0.30;;;12.60;91.60;;;;;;5030929;28;20130;-66
2023/03/06 11:44:31;;;;;;;1.45;0.40;;;11.60;91.60;;;;;;5032095;28;20076;-66
2023/03/06 11:47:29;;;;;;;1.20;0.40;;;10.60;91.30;;;;;;5030000;28;20401;-66
2023/03/06 11:50:06;;;;;;;2.13;0.40;;;10.30;93.00;;;;;;5030861;28;20048;-66
2023/03/06 11:52:46;;;;;;;1.65;0.70;;;10.80;93.80;;;;;;5031258;28;20051;-66
2023/03/06 11:55:16;;;;;;;3.97;0.40;;;11.50;93.90;;;;;;5029662;28;20513;-67
2023/03/06 11:57:53;;;;;;;3.38;0.43;;;11.90;93.30;;;;;;5030150;28;20037;-66
2023/03/06 12:00:21;;;;;;;1.88;0.77;;;11.50;92.90;;;;;;5028315;28;20073;-66
2023/03/06 12:03:08;;;;;;;1.67;0.40;;;11.40;93.40;;;;;;5029494;28;20076;-66
2023/03/06 12:05:45;;;;;;;4.32;0.57;;;11.80;93.50;;;;;;5030682;28;20394;-66
2023/03/06 12:08:20;;;;;;;1.30;0.32;;;12.30;93.70;;;;;;5031280;28;20103;-66
2023/03/06 12:11:00;;;;;;;2.20;0.40;;;12.30;92.50;;;;;;5049116;28;20455;-66
2023/03/06 12:13:37;;;;;;;2.10;0.57;;;12.10;91.30;;;;;;5049201;28;20106;-66
2023/03/06 12:16:18;;;;;;;1.08;0.30;;;12.20;91.60;;;;;;5048408;28;20531;-66
2023/03/06 12:18:56;;;;;;;1.92;0.55;;;12.10;91.40;;;;;;5050171;28;20474;-66
2023/03/06 12:21:38;;;;;;;1.33;0.30;;;11.90;91.00;;;;;;5048350;28;20269;-67
2023/03/06 12:24:16;;;;;;;1.10;0.10;;;11.80;91.70;;;;;;5048231;28;20055;-66
2023/03/06 12:27:01;;;;;;;0.95;0.22;;;11.80;92.10;;;;;;5050387;28;20087;-66
2023/03/06 12:29:44;;;;;;;2.13;0.40;;;12.10;90.50;;;;;;5049248;28;20427;-66
2023/03/06 12:32:22;;;;;;;2.22;0.50;;;12.30;90.00;;;;;;5048666;28;20049;-66
2023/03/06 12:35:19;;;;;;;2.90;0.50;;;12.40;88.30;;;;;;5032279;28;20043;-66
2023/03/06 12:37:55;;;;;;;2.30;0.52;;;12.00;89.20;;;;;;5050249;28;20422;-66
2023/03/06 12:41:09;;;;;;;2.28;0.60;;;11.70;90.00;;;;;;5049160;28;20152;-66
2023/03/06 12:43:46;;;;;;;2.60;0.40;;;11.40;90.70;;;;;;5047478;28;20500;-66
2023/03/06 12:46:19;;;;;;;4.05;0.55;;;11.30;91.60;;;;;;5047618;28;20041;-66
2023/03/06 12:48:53;;;;;;;1.65;0.38;;;11.20;92.10;;;;;;5030423;28;20056;-66
2023/03/06 12:51:20;;;;;;;2.80;0.30;;;11.10;92.00;;;;;;5044797;28;20099;-66
2023/03/06 12:53:48;;;;;;;2.15;0.40;;;11.00;92.10;;;;;;5046592;28;20055;-65
2023/03/06 12:56:15;;;;;;;2.13;0.38;;;11.00;92.00;;;;;;5045379;28;20498;-66
2023/03/06 12:58:50;;;;;;;1.05;0.43;;;11.10;91.80;;;;;;5025749;28;20072;-66
2023/03/06 13:01:37;;;;;;;6.10;1.48;;;11.30;91.40;;;;;;5008966;28;20057;-66
2023/03/06 13:04:18;;;;;;;3.38;0.55;;;11.20;90.90;;;;;;5041543;28;20045;-66
2023/03/06 13:07:09;;;;;;;2.20;0.40;;;11.20;91.40;;;;;;5032469;28;20629;-66